sensor_id;sensor_type;location;lat;lon;timestamp;temperature;humidity
3874;DHT22;1952;50.872;6.692;2022-07-29T00:30:50;19.30;1.00
3874;DHT22;1952;50.872;6.692;2022-07-29T00:33:22;19.30;1.00
3874;DHT22;1952;50.872;6.692;2022-07-29T00:36:00;19.30;1.00
3874;DHT22;1952;50.872;6.692;2022-07-29T00:38:35;22.00;1.00
3874;DHT22;1952;50.872;6.692;2022-07-29T00:41:03;19.20;1.00
3874;DHT22;1952;50.872;6.692;2022-07-29T00:43:36;19.30;1.00
3874;DHT22;1952;50.872;6.692;2022-07-29T00:46:06;19.30;1.00
3874;DHT22;1952;50.872;6.692;2022-07-29T00:48:34;19.30;1.00
3874;DHT22;1952;50.872;6.692;2022-07-29T00:51:07;19.30;1.00
3874;DHT22;1952;50.872;6.692;2022-07-29T00:56:10;19.10;1.00
3874;DHT22;1952;50.872;6.692;2022-07-29T00:58:39;19.10;1.00
3874;DHT22;1952;50.872;6.692;2022-07-29T01:01:09;19.00;1.00
3874;DHT22;1952;50.872;6.692;2022-07-29T01:03:37;18.90;1.00
3874;DHT22;1952;50.872;6.692;2022-07-29T01:06:05;18.80;1.00
3874;DHT22;1952;50.872;6.692;2022-07-29T01:08:34;18.70;5.30
3874;DHT22;1952;50.872;6.692;2022-07-29T01:11:07;18.70;6.80
3874;DHT22;1952;50.872;6.692;2022-07-29T01:13:36;18.70;9.40
3874;DHT22;1952;50.872;6.692;2022-07-29T01:16:10;18.70;13.20
3874;DHT22;1952;50.872;6.692;2022-07-29T01:18:46;18.60;15.50
3874;DHT22;1952;50.872;6.692;2022-07-29T01:21:27;18.60;15.10
3874;DHT22;1952;50.872;6.692;2022-07-29T01:24:30;18.60;19.50
3874;DHT22;1952;50.872;6.692;2022-07-29T01:27:06;18.60;23.30
3874;DHT22;1952;50.872;6.692;2022-07-29T01:29:49;18.60;29.20
3874;DHT22;1952;50.872;6.692;2022-07-29T01:32:26;18.60;32.40
3874;DHT22;1952;50.872;6.692;2022-07-29T01:34:58;18.60;23.20
3874;DHT22;1952;50.872;6.692;2022-07-29T01:37:34;18.60;21.90
3874;DHT22;1952;50.872;6.692;2022-07-29T01:40:05;18.60;21.60
3874;DHT22;1952;50.872;6.692;2022-07-29T01:42:43;18.60;32.40
3874;DHT22;1952;50.872;6.692;2022-07-29T01:45:19;18.50;36.30
3874;DHT22;1952;50.872;6.692;2022-07-29T01:47:54;18.70;41.30
3874;DHT22;1952;50.872;6.692;2022-07-29T01:50:29;18.60;37.40
3874;DHT22;1952;50.872;6.692;2022-07-29T01:53:08;18.60;47.90
3874;DHT22;1952;50.872;6.692;2022-07-29T01:55:44;18.50;99.90
3874;DHT22;1952;50.872;6.692;2022-07-29T01:58:19;18.70;99.90
3874;DHT22;1952;50.872;6.692;2022-07-29T02:00:56;18.80;99.90
3874;DHT22;1952;50.872;6.692;2022-07-29T02:03:25;18.60;99.90
3874;DHT22;1952;50.872;6.692;2022-07-29T02:05:55;18.60;99.90
3874;DHT22;1952;50.872;6.692;2022-07-29T02:08:25;18.70;99.90
3874;DHT22;1952;50.872;6.692;2022-07-29T02:10:55;18.60;99.90
3874;DHT22;1952;50.872;6.692;2022-07-29T02:13:29;18.40;99.90
3874;DHT22;1952;50.872;6.692;2022-07-29T02:16:06;18.30;99.90
3874;DHT22;1952;50.872;6.692;2022-07-29T02:18:36;18.20;99.90
3874;DHT22;1952;50.872;6.692;2022-07-29T02:21:13;18.20;99.90
3874;DHT22;1952;50.872;6.692;2022-07-29T02:23:46;18.10;99.90
3874;DHT22;1952;50.872;6.692;2022-07-29T02:26:18;18.10;99.90
3874;DHT22;1952;50.872;6.692;2022-07-29T02:28:58;18.10;99.90
3874;DHT22;1952;50.872;6.692;2022-07-29T02:31:32;18.00;99.90
3874;DHT22;1952;50.872;6.692;2022-07-29T02:34:08;17.90;99.90
3874;DHT22;1952;50.872;6.692;2022-07-29T02:36:43;17.90;99.90
3874;DHT22;1952;50.872;6.692;2022-07-29T02:39:15;18.00;99.90
3874;DHT22;1952;50.872;6.692;2022-07-29T02:41:50;18.00;99.90
3874;DHT22;1952;50.872;6.692;2022-07-29T02:44:26;18.10;99.90
3874;DHT22;1952;50.872;6.692;2022-07-29T02:47:18;18.20;99.90
3874;DHT22;1952;50.872;6.692;2022-07-29T02:49:52;18.10;99.90
3874;DHT22;1952;50.872;6.692;2022-07-29T02:52:30;18.20;99.90
3874;DHT22;1952;50.872;6.692;2022-07-29T02:55:04;18.10;99.90
3874;DHT22;1952;50.872;6.692;2022-07-29T02:57:59;18.00;99.90
3874;DHT22;1952;50.872;6.692;2022-07-29T03:00:37;18.10;99.90
3874;DHT22;1952;50.872;6.692;2022-07-29T03:03:10;18.00;99.90
3874;DHT22;1952;50.872;6.692;2022-07-29T03:08:13;18.00;99.90
3874;DHT22;1952;50.872;6.692;2022-07-29T03:13:22;18.00;99.90
3874;DHT22;1952;50.872;6.692;2022-07-29T03:18:22;18.00;99.90
3874;DHT22;1952;50.872;6.692;2022-07-29T03:23:30;18.00;99.90
3874;DHT22;1952;50.872;6.692;2022-07-29T03:28:28;17.90;99.90
3874;DHT22;1952;50.872;6.692;2022-07-29T03:33:34;17.90;99.90
3874;DHT22;1952;50.872;6.692;2022-07-29T03:38:36;18.00;99.90
3874;DHT22;1952;50.872;6.692;2022-07-29T03:41:09;17.90;99.90
3874;DHT22;1952;50.872;6.692;2022-07-29T03:43:38;17.90;99.90
3874;DHT22;1952;50.872;6.692;2022-07-29T03:46:16;17.90;99.90
3874;DHT22;1952;50.872;6.692;2022-07-29T03:48:49;17.90;99.90
3874;DHT22;1952;50.872;6.692;2022-07-29T03:56:38;17.90;99.90
3874;DHT22;1952;50.872;6.692;2022-07-29T04:01:37;17.80;99.90
3874;DHT22;1952;50.872;6.692;2022-07-29T04:04:10;17.70;1.00
3874;DHT22;1952;50.872;6.692;2022-07-29T04:06:40;17.70;99.90
3874;DHT22;1952;50.872;6.692;2022-07-29T04:17:05;17.60;99.90
3874;DHT22;1952;50.872;6.692;2022-07-29T04:19:37;17.50;1.00
3874;DHT22;1952;50.872;6.692;2022-07-29T04:24:34;17.40;1.00
3874;DHT22;1952;50.872;6.692;2022-07-29T04:34:58;17.40;1.00
3874;DHT22;1952;50.872;6.692;2022-07-29T04:50:19;17.20;99.90
3874;DHT22;1952;50.872;6.692;2022-07-29T05:05:38;17.30;1.00
3874;DHT22;1952;50.872;6.692;2022-07-29T05:18:05;17.30;1.00
3874;DHT22;1952;50.872;6.692;2022-07-29T05:23:03;17.30;1.00
3874;DHT22;1952;50.872;6.692;2022-07-29T05:38:14;17.80;99.90
3874;DHT22;1952;50.872;6.692;2022-07-29T06:47:09;17.60;99.90
3874;DHT22;1952;50.872;6.692;2022-07-29T06:49:37;17.50;99.90
3874;DHT22;1952;50.872;6.692;2022-07-29T06:55:10;17.60;99.90
3874;DHT22;1952;50.872;6.692;2022-07-29T07:01:03;17.80;99.90
3874;DHT22;1952;50.872;6.692;2022-07-29T07:10:53;18.10;50.40
3874;DHT22;1952;50.872;6.692;2022-07-29T07:18:22;17.80;42.50
3874;DHT22;1952;50.872;6.692;2022-07-29T07:26:36;17.60;99.90
3874;DHT22;1952;50.872;6.692;2022-07-29T07:29:06;17.50;99.90
3874;DHT22;1952;50.872;6.692;2022-07-29T07:31:40;17.20;99.90
3874;DHT22;1952;50.872;6.692;2022-07-29T07:37:33;17.00;99.90
3874;DHT22;1952;50.872;6.692;2022-07-29T07:40:37;16.90;99.90
3874;DHT22;1952;50.872;6.692;2022-07-29T08:04:13;17.90;99.90
3874;DHT22;1952;50.872;6.692;2022-07-29T08:19:24;18.70;99.90
3874;DHT22;1952;50.872;6.692;2022-07-29T08:35:23;19.50;99.90
3874;DHT22;1952;50.872;6.692;2022-07-29T08:37:52;19.60;99.90
3874;DHT22;1952;50.872;6.692;2022-07-29T08:45:23;20.40;26.90
3874;DHT22;1952;50.872;6.692;2022-07-29T08:52:52;21.30;1.00
3874;DHT22;1952;50.872;6.692;2022-07-29T08:57:55;24.00;1.00
3874;DHT22;1952;50.872;6.692;2022-07-29T09:00:24;24.40;1.00
3874;DHT22;1952;50.872;6.692;2022-07-29T09:02:57;25.50;1.00
3874;DHT22;1952;50.872;6.692;2022-07-29T09:05:32;26.30;99.90
3874;DHT22;1952;50.872;6.692;2022-07-29T09:08:06;26.30;99.90
3874;DHT22;1952;50.872;6.692;2022-07-29T09:10:37;27.60;99.90
3874;DHT22;1952;50.872;6.692;2022-07-29T09:21:00;27.80;99.90
3874;DHT22;1952;50.872;6.692;2022-07-29T09:24:00;27.60;99.90
3874;DHT22;1952;50.872;6.692;2022-07-29T09:26:35;27.10;99.90
3874;DHT22;1952;50.872;6.692;2022-07-29T09:29:10;26.80;99.90
3874;DHT22;1952;50.872;6.692;2022-07-29T09:31:40;27.80;99.90
3874;DHT22;1952;50.872;6.692;2022-07-29T09:34:10;26.90;99.90
3874;DHT22;1952;50.872;6.692;2022-07-29T09:36:42;26.90;99.90
3874;DHT22;1952;50.872;6.692;2022-07-29T09:39:11;26.90;99.90
3874;DHT22;1952;50.872;6.692;2022-07-29T09:41:48;26.60;99.90
3874;DHT22;1952;50.872;6.692;2022-07-29T09:50:05;26.50;99.90
3874;DHT22;1952;50.872;6.692;2022-07-29T09:56:46;26.40;99.90
3874;DHT22;1952;50.872;6.692;2022-07-29T10:06:57;28.40;99.90
3874;DHT22;1952;50.872;6.692;2022-07-29T10:12:12;30.00;99.90
3874;DHT22;1952;50.872;6.692;2022-07-29T10:14:42;30.20;90.50
3874;DHT22;1952;50.872;6.692;2022-07-29T10:17:16;30.70;85.30
3874;DHT22;1952;50.872;6.692;2022-07-29T10:25:10;31.60;51.20
3874;DHT22;1952;50.872;6.692;2022-07-29T10:27:40;31.80;42.50
3874;DHT22;1952;50.872;6.692;2022-07-29T10:30:10;31.90;37.80
3874;DHT22;1952;50.872;6.692;2022-07-29T10:32:54;31.50;30.60
3874;DHT22;1952;50.872;6.692;2022-07-29T10:35:39;31.80;29.00
3874;DHT22;1952;50.872;6.692;2022-07-29T10:41:30;32.10;22.60
3874;DHT22;1952;50.872;6.692;2022-07-29T10:44:15;32.30;18.60
3874;DHT22;1952;50.872;6.692;2022-07-29T10:46:49;32.00;13.40
3874;DHT22;1952;50.872;6.692;2022-07-29T10:49:19;32.30;12.70
3874;DHT22;1952;50.872;6.692;2022-07-29T10:51:59;32.70;11.70
3874;DHT22;1952;50.872;6.692;2022-07-29T10:54:41;33.00;10.00
3874;DHT22;1952;50.872;6.692;2022-07-29T10:57:23;32.90;4.90
3874;DHT22;1952;50.872;6.692;2022-07-29T11:00:29;32.90;2.10
3874;DHT22;1952;50.872;6.692;2022-07-29T11:05:55;32.80;1.00
3874;DHT22;1952;50.872;6.692;2022-07-29T11:17:04;32.50;1.00
3874;DHT22;1952;50.872;6.692;2022-07-29T11:22:09;32.60;1.00
3874;DHT22;1952;50.872;6.692;2022-07-29T11:27:18;32.30;1.00
3874;DHT22;1952;50.872;6.692;2022-07-29T11:29:54;32.30;1.00
3874;DHT22;1952;50.872;6.692;2022-07-29T11:32:24;32.20;1.00
3874;DHT22;1952;50.872;6.692;2022-07-29T11:35:16;32.10;1.00
3874;DHT22;1952;50.872;6.692;2022-07-29T11:38:23;31.80;1.00
3874;DHT22;1952;50.872;6.692;2022-07-29T11:41:19;31.50;1.00
3874;DHT22;1952;50.872;6.692;2022-07-29T11:43:50;31.90;1.00
3874;DHT22;1952;50.872;6.692;2022-07-29T11:46:43;32.20;1.00
3874;DHT22;1952;50.872;6.692;2022-07-29T11:49:19;32.70;1.00
3874;DHT22;1952;50.872;6.692;2022-07-29T12:44:05;32.40;1.00
3874;DHT22;1952;50.872;6.692;2022-07-29T12:46:38;32.30;1.00
3874;DHT22;1952;50.872;6.692;2022-07-29T12:49:21;32.50;1.00
3874;DHT22;1952;50.872;6.692;2022-07-29T12:52:27;32.50;1.00
3874;DHT22;1952;50.872;6.692;2022-07-29T12:54:59;32.50;1.00
3874;DHT22;1952;50.872;6.692;2022-07-29T12:57:46;32.20;1.00
3874;DHT22;1952;50.872;6.692;2022-07-29T13:00:26;32.20;1.00
3874;DHT22;1952;50.872;6.692;2022-07-29T13:03:02;30.20;1.00
3874;DHT22;1952;50.872;6.692;2022-07-29T13:08:28;32.60;1.00
3874;DHT22;1952;50.872;6.692;2022-07-29T13:11:03;32.50;1.00
3874;DHT22;1952;50.872;6.692;2022-07-29T13:14:00;32.80;1.00
3874;DHT22;1952;50.872;6.692;2022-07-29T13:16:36;31.50;1.00
3874;DHT22;1952;50.872;6.692;2022-07-29T13:19:15;33.00;1.00
3874;DHT22;1952;50.872;6.692;2022-07-29T13:22:00;33.00;1.00
3874;DHT22;1952;50.872;6.692;2022-07-29T13:24:29;33.10;1.00
3874;DHT22;1952;50.872;6.692;2022-07-29T13:26:59;32.80;1.00
3874;DHT22;1952;50.872;6.692;2022-07-29T13:29:41;32.60;1.00
3874;DHT22;1952;50.872;6.692;2022-07-29T13:32:42;32.50;1.00
3874;DHT22;1952;50.872;6.692;2022-07-29T13:35:26;32.60;1.00
3874;DHT22;1952;50.872;6.692;2022-07-29T13:37:56;32.20;1.00
3874;DHT22;1952;50.872;6.692;2022-07-29T13:40:42;31.80;1.00
3874;DHT22;1952;50.872;6.692;2022-07-29T13:43:17;32.80;1.00
3874;DHT22;1952;50.872;6.692;2022-07-29T13:45:46;33.00;1.00
3874;DHT22;1952;50.872;6.692;2022-07-29T13:48:18;32.60;1.00
3874;DHT22;1952;50.872;6.692;2022-07-29T13:51:01;34.20;1.00
3874;DHT22;1952;50.872;6.692;2022-07-29T13:53:36;32.40;1.00
3874;DHT22;1952;50.872;6.692;2022-07-29T13:56:32;32.60;1.00
3874;DHT22;1952;50.872;6.692;2022-07-29T13:59:02;32.20;1.00
3874;DHT22;1952;50.872;6.692;2022-07-29T14:02:00;33.20;1.00
3874;DHT22;1952;50.872;6.692;2022-07-29T14:05:00;32.30;1.00
3874;DHT22;1952;50.872;6.692;2022-07-29T14:07:42;32.10;1.00
3874;DHT22;1952;50.872;6.692;2022-07-29T14:10:24;31.90;1.00
3874;DHT22;1952;50.872;6.692;2022-07-29T14:13:02;31.80;1.00
3874;DHT22;1952;50.872;6.692;2022-07-29T14:15:45;31.70;1.00
3874;DHT22;1952;50.872;6.692;2022-07-29T14:18:16;31.80;1.00
3874;DHT22;1952;50.872;6.692;2022-07-29T14:21:14;32.60;1.00
3874;DHT22;1952;50.872;6.692;2022-07-29T14:23:59;32.50;1.00
3874;DHT22;1952;50.872;6.692;2022-07-29T14:26:58;33.70;1.00
3874;DHT22;1952;50.872;6.692;2022-07-29T14:29:33;33.20;1.00
3874;DHT22;1952;50.872;6.692;2022-07-29T14:32:16;32.90;1.00
3874;DHT22;1952;50.872;6.692;2022-07-29T14:37:50;31.70;1.00
3874;DHT22;1952;50.872;6.692;2022-07-29T14:40:34;31.30;1.00
3874;DHT22;1952;50.872;6.692;2022-07-29T14:43:04;31.00;1.00
3874;DHT22;1952;50.872;6.692;2022-07-29T14:45:41;30.90;1.00
3874;DHT22;1952;50.872;6.692;2022-07-29T14:48:14;31.00;1.00
3874;DHT22;1952;50.872;6.692;2022-07-29T14:50:47;30.80;1.00
3874;DHT22;1952;50.872;6.692;2022-07-29T14:53:32;31.00;1.00
3874;DHT22;1952;50.872;6.692;2022-07-29T14:56:19;31.10;1.00
3874;DHT22;1952;50.872;6.692;2022-07-29T14:59:06;31.10;1.00
3874;DHT22;1952;50.872;6.692;2022-07-29T15:04:22;30.60;1.00
3874;DHT22;1952;50.872;6.692;2022-07-29T15:06:53;30.60;1.00
3874;DHT22;1952;50.872;6.692;2022-07-29T15:10:06;30.60;1.00
3874;DHT22;1952;50.872;6.692;2022-07-29T15:12:51;30.30;1.00
3874;DHT22;1952;50.872;6.692;2022-07-29T15:18:07;29.90;1.00
3874;DHT22;1952;50.872;6.692;2022-07-29T15:21:03;29.90;1.00
3874;DHT22;1952;50.872;6.692;2022-07-29T15:23:46;30.10;1.00
3874;DHT22;1952;50.872;6.692;2022-07-29T15:27:00;30.00;1.00
3874;DHT22;1952;50.872;6.692;2022-07-29T15:29:40;29.90;1.00
3874;DHT22;1952;50.872;6.692;2022-07-29T15:32:36;30.00;1.00
3874;DHT22;1952;50.872;6.692;2022-07-29T15:35:18;30.10;1.00
3874;DHT22;1952;50.872;6.692;2022-07-29T15:41:44;29.60;1.00
3874;DHT22;1952;50.872;6.692;2022-07-29T15:44:26;29.30;1.00
3874;DHT22;1952;50.872;6.692;2022-07-29T15:50:18;29.40;1.00
3874;DHT22;1952;50.872;6.692;2022-07-29T15:56:11;29.60;1.00
3874;DHT22;1952;50.872;6.692;2022-07-29T15:59:08;29.70;1.00
3874;DHT22;1952;50.872;6.692;2022-07-29T16:01:48;29.40;1.00
3874;DHT22;1952;50.872;6.692;2022-07-29T16:04:33;29.40;1.00
3874;DHT22;1952;50.872;6.692;2022-07-29T16:07:15;29.30;1.00
3874;DHT22;1952;50.872;6.692;2022-07-29T16:09:48;29.30;1.00
3874;DHT22;1952;50.872;6.692;2022-07-29T16:12:33;29.20;1.00
3874;DHT22;1952;50.872;6.692;2022-07-29T16:15:07;29.10;1.00
3874;DHT22;1952;50.872;6.692;2022-07-29T16:17:42;29.10;1.00
3874;DHT22;1952;50.872;6.692;2022-07-29T16:20:11;28.90;1.00
3874;DHT22;1952;50.872;6.692;2022-07-29T16:25:27;28.80;1.00
3874;DHT22;1952;50.872;6.692;2022-07-29T16:28:24;28.90;1.00
3874;DHT22;1952;50.872;6.692;2022-07-29T16:31:14;28.80;1.00
3874;DHT22;1952;50.872;6.692;2022-07-29T16:33:45;28.80;1.00
3874;DHT22;1952;50.872;6.692;2022-07-29T16:41:48;28.70;1.00
3874;DHT22;1952;50.872;6.692;2022-07-29T16:44:26;28.70;1.00
3874;DHT22;1952;50.872;6.692;2022-07-29T16:49:39;28.60;1.00
3874;DHT22;1952;50.872;6.692;2022-07-29T16:52:08;28.40;1.00
3874;DHT22;1952;50.872;6.692;2022-07-29T16:57:06;27.90;1.00
3874;DHT22;1952;50.872;6.692;2022-07-29T16:59:51;27.70;1.00
3874;DHT22;1952;50.872;6.692;2022-07-29T17:02:41;27.80;1.00
3874;DHT22;1952;50.872;6.692;2022-07-29T17:05:16;27.80;1.00
3874;DHT22;1952;50.872;6.692;2022-07-29T17:08:20;27.90;1.00
3874;DHT22;1952;50.872;6.692;2022-07-29T17:13:21;28.00;1.00
3874;DHT22;1952;50.872;6.692;2022-07-29T17:15:53;28.10;1.00
3874;DHT22;1952;50.872;6.692;2022-07-29T17:18:35;27.90;1.00
3874;DHT22;1952;50.872;6.692;2022-07-29T17:21:11;27.90;1.00
3874;DHT22;1952;50.872;6.692;2022-07-29T17:23:52;27.70;1.00
3874;DHT22;1952;50.872;6.692;2022-07-29T17:26:49;27.80;1.00
3874;DHT22;1952;50.872;6.692;2022-07-29T17:29:34;27.50;1.00
3874;DHT22;1952;50.872;6.692;2022-07-29T17:34:56;27.60;1.00
3874;DHT22;1952;50.872;6.692;2022-07-29T17:37:30;27.60;1.00
3874;DHT22;1952;50.872;6.692;2022-07-29T17:50:09;27.20;1.00
3874;DHT22;1952;50.872;6.692;2022-07-29T18:35:26;25.40;99.90
3874;DHT22;1952;50.872;6.692;2022-07-29T18:40:29;25.40;99.90
3874;DHT22;1952;50.872;6.692;2022-07-29T18:42:58;25.30;99.90
3874;DHT22;1952;50.872;6.692;2022-07-29T18:48:06;25.10;99.90
3874;DHT22;1952;50.872;6.692;2022-07-29T18:50:40;25.00;99.90
3874;DHT22;1952;50.872;6.692;2022-07-29T18:53:09;25.00;99.90
3874;DHT22;1952;50.872;6.692;2022-07-29T18:55:42;24.80;99.90
3874;DHT22;1952;50.872;6.692;2022-07-29T18:58:12;24.80;99.90
3874;DHT22;1952;50.872;6.692;2022-07-29T19:03:22;24.60;99.90
3874;DHT22;1952;50.872;6.692;2022-07-29T19:08:32;24.40;99.90
3874;DHT22;1952;50.872;6.692;2022-07-29T19:11:00;24.40;99.90
3874;DHT22;1952;50.872;6.692;2022-07-29T19:16:21;24.30;99.90
3874;DHT22;1952;50.872;6.692;2022-07-29T19:24:03;24.00;1.00
3874;DHT22;1952;50.872;6.692;2022-07-29T19:26:37;24.00;1.00
3874;DHT22;1952;50.872;6.692;2022-07-29T19:29:19;23.90;1.00
3874;DHT22;1952;50.872;6.692;2022-07-29T19:31:52;23.80;1.00
3874;DHT22;1952;50.872;6.692;2022-07-29T19:34:30;23.50;1.00
3874;DHT22;1952;50.872;6.692;2022-07-29T19:37:49;23.80;1.00
3874;DHT22;1952;50.872;6.692;2022-07-29T19:40:29;23.60;50.60
3874;DHT22;1952;50.872;6.692;2022-07-29T19:43:02;23.50;99.90
3874;DHT22;1952;50.872;6.692;2022-07-29T19:45:30;23.40;99.90
3874;DHT22;1952;50.872;6.692;2022-07-29T19:48:04;23.30;99.90
3874;DHT22;1952;50.872;6.692;2022-07-29T19:50:33;22.60;99.90
3874;DHT22;1952;50.872;6.692;2022-07-29T19:53:03;23.20;99.90
3874;DHT22;1952;50.872;6.692;2022-07-29T19:57:59;23.20;1.00
3874;DHT22;1952;50.872;6.692;2022-07-29T20:00:34;23.10;1.00
3874;DHT22;1952;50.872;6.692;2022-07-29T20:05:32;23.10;1.00
3874;DHT22;1952;50.872;6.692;2022-07-29T20:18:01;22.90;99.90
3874;DHT22;1952;50.872;6.692;2022-07-29T20:20:30;22.80;99.90
3874;DHT22;1952;50.872;6.692;2022-07-29T20:23:04;22.90;99.90
3874;DHT22;1952;50.872;6.692;2022-07-29T20:28:10;24.70;31.10
3874;DHT22;1952;50.872;6.692;2022-07-29T20:41:00;22.70;99.90
3874;DHT22;1952;50.872;6.692;2022-07-29T20:56:49;22.40;99.90
3874;DHT22;1952;50.872;6.692;2022-07-29T21:04:42;22.30;1.00
3874;DHT22;1952;50.872;6.692;2022-07-29T21:07:15;22.10;99.90
3874;DHT22;1952;50.872;6.692;2022-07-29T21:12:27;21.80;99.90
3874;DHT22;1952;50.872;6.692;2022-07-29T21:15:01;21.90;99.90
3874;DHT22;1952;50.872;6.692;2022-07-29T21:17:32;21.70;99.90
3874;DHT22;1952;50.872;6.692;2022-07-29T21:20:03;21.70;99.90
3874;DHT22;1952;50.872;6.692;2022-07-29T21:22:32;21.80;99.90
3874;DHT22;1952;50.872;6.692;2022-07-29T21:25:05;21.70;99.90
3874;DHT22;1952;50.872;6.692;2022-07-29T21:27:35;21.60;99.90
3874;DHT22;1952;50.872;6.692;2022-07-29T21:32:50;21.50;99.90
3874;DHT22;1952;50.872;6.692;2022-07-29T21:35:24;21.40;1.00
3874;DHT22;1952;50.872;6.692;2022-07-29T21:38:07;21.40;1.00
3874;DHT22;1952;50.872;6.692;2022-07-29T21:40:35;21.40;1.00
3874;DHT22;1952;50.872;6.692;2022-07-29T21:48:11;21.30;1.00
3874;DHT22;1952;50.872;6.692;2022-07-29T21:53:08;21.40;1.00
3874;DHT22;1952;50.872;6.692;2022-07-29T22:00:44;21.20;1.00
3874;DHT22;1952;50.872;6.692;2022-07-29T22:15:43;20.10;1.00
3874;DHT22;1952;50.872;6.692;2022-07-29T22:31:02;19.50;22.90
3874;DHT22;1952;50.872;6.692;2022-07-29T22:38:36;19.50;20.30
3874;DHT22;1952;50.872;6.692;2022-07-29T22:46:41;19.10;46.70
3874;DHT22;1952;50.872;6.692;2022-07-29T23:01:47;18.50;85.00
3874;DHT22;1952;50.872;6.692;2022-07-29T23:04:16;18.50;92.80
3874;DHT22;1952;50.872;6.692;2022-07-29T23:17:05;18.80;73.60
3874;DHT22;1952;50.872;6.692;2022-07-29T23:32:15;18.70;84.30
3874;DHT22;1952;50.872;6.692;2022-07-29T23:37:17;18.60;79.80
3874;DHT22;1952;50.872;6.692;2022-07-29T23:47:22;18.60;73.70
3874;DHT22;1952;50.872;6.692;2022-07-29T23:54:53;18.70;67.80
